Hokitika Airfield


Codes: NZHK/HKK
Name: Hokitika Airfield
City:
Country: New Zealand
Elevation: 146 ft.
Wikipedia:

Photos at Hokitika Airfield


   Photos courtesy of SpottingLog. You can add your own sightings and photos by signing up for a free trial today.



No photos found.

Weather at Hokitika Airfield


Time (UTC)DescriptionTempratureWindCloud coverageVisibilityPressureHumidity
19-Apr-2024 03:00Overcast Clouds14°C2 mph, NW100%10000m1015hPa70%
19-Apr-2024 06:00Overcast Clouds13°C2 mph, SE100%10000m1015hPa74%
19-Apr-2024 09:00Overcast Clouds12°C4 mph, SE96%10000m1016hPa81%
19-Apr-2024 12:00Overcast Clouds10°C4 mph, SE97%10000m1016hPa84%
19-Apr-2024 15:00Overcast Clouds9°C4 mph, SE100%10000m1016hPa81%
19-Apr-2024 18:00Broken Clouds9°C4 mph, SE67%10000m1016hPa79%
19-Apr-2024 21:00Clear Sky11°C2 mph, SE0%10000m1018hPa69%
20-Apr-2024 00:00Clear Sky14°C4 mph, W0%10000m1017hPa65%
20-Apr-2024 03:00Clear Sky15°C9 mph, W0%10000m1015hPa70%
20-Apr-2024 06:00Clear Sky13°C7 mph, SW0%10000m1015hPa88%
20-Apr-2024 09:00Light Rain11°C7 mph, SW3%10000m1016hPa90%
20-Apr-2024 12:00Few Clouds11°C4 mph, SW17%10000m1016hPa89%
20-Apr-2024 15:00Overcast Clouds12°C4 mph, SW87%10000m1015hPa83%
20-Apr-2024 18:00Overcast Clouds11°C4 mph, S93%10000m1015hPa85%
20-Apr-2024 21:00Light Rain12°C4 mph, E100%10000m1015hPa81%
21-Apr-2024 00:00Overcast Clouds14°C2 mph, NE96%10000m1015hPa70%
21-Apr-2024 03:00Clear Sky14°C4 mph, NW7%10000m1014hPa72%
21-Apr-2024 06:00Few Clouds13°C2 mph, SW24%10000m1015hPa81%
21-Apr-2024 09:00Light Rain13°C2 mph, NE97%10000m1016hPa85%
21-Apr-2024 12:00Light Rain13°C2 mph, SW98%10000m1016hPa87%
21-Apr-2024 15:00Light Rain13°C4 mph, SW95%10000m1016hPa90%
21-Apr-2024 18:00Light Rain12°C2 mph, S96%10000m1017hPa88%
21-Apr-2024 21:00Broken Clouds14°C2 mph, SE68%10000m1019hPa82%
22-Apr-2024 00:00Scattered Clouds16°C4 mph, N48%10000m1020hPa69%
22-Apr-2024 03:00Clear Sky16°C7 mph, N0%10000m1019hPa71%
22-Apr-2024 06:00Clear Sky13°C0 mph, NE0%10000m1021hPa83%
22-Apr-2024 09:00Clear Sky12°C4 mph, E4%10000m1023hPa88%
22-Apr-2024 12:00Clear Sky12°C4 mph, E2%10000m1024hPa90%
22-Apr-2024 15:00Light Rain13°C2 mph, NE84%10000m1024hPa87%
22-Apr-2024 18:00Overcast Clouds13°C2 mph, W91%10000m1024hPa76%
22-Apr-2024 21:00Scattered Clouds13°C4 mph, W41%10000m1025hPa72%
23-Apr-2024 00:00Scattered Clouds14°C7 mph, W25%10000m1026hPa64%
23-Apr-2024 03:00Scattered Clouds14°C7 mph, W48%10000m1025hPa66%
23-Apr-2024 06:00Broken Clouds12°C4 mph, SW52%10000m1024hPa76%
23-Apr-2024 09:00Broken Clouds11°C2 mph, S78%10000m1025hPa85%
23-Apr-2024 12:00Overcast Clouds11°C2 mph, S88%10000m1025hPa83%
23-Apr-2024 15:00Overcast Clouds12°C2 mph, NE100%10000m1025hPa82%
23-Apr-2024 18:00Overcast Clouds12°C2 mph, E100%10000m1025hPa83%
23-Apr-2024 21:00Overcast Clouds12°C2 mph, E100%10000m1026hPa82%
24-Apr-2024 00:00Overcast Clouds15°C2 mph, N91%10000m1025hPa72%